Time;durP1;ratioP1;P1;durP2;ratioP2;P2;SDS_P1;SDS_P2;PMS_P1;PMS_P2;Temp;Humidity;BMP_temperature;BMP_pressure;BME280_temperature;BME280_humidity;BME280_pressure;Samples;Min_cycle;Max_cycle;Signal;HPM_P1;HPM_P2
2023/07/12 00:01:45;;;;;;;2.33;1.80;;;;;;;22.91;53.87;99868.70;1671393;84;21253;-81
2023/07/12 00:04:52;;;;;;;3.65;2.40;;;;;;;22.95;54.03;99868.98;1672752;86;21331;-81
2023/07/12 00:07:58;;;;;;;3.98;1.95;;;;;;;23.23;53.23;99866.92;1671922;86;21339;-81
2023/07/12 00:11:04;;;;;;;2.65;1.92;;;;;;;23.12;53.43;99870.22;1671430;86;21347;-80
2023/07/12 00:14:12;;;;;;;1.65;1.55;;;;;;;23.00;53.54;99863.99;1672706;86;21399;-81
2023/07/12 00:17:18;;;;;;;2.35;1.85;;;;;;;22.92;53.45;99860.61;1672403;86;21330;-81
2023/07/12 00:20:31;;;;;;;2.40;1.70;;;;;;;22.73;53.92;99865.47;1666585;85;21316;-81
2023/07/12 00:23:36;;;;;;;2.20;1.65;;;;;;;22.66;53.98;99867.06;1647296;86;21311;-80
2023/07/12 00:26:43;;;;;;;2.45;1.70;;;;;;;22.80;53.67;99873.87;1681507;85;21310;-80
2023/07/12 00:29:51;;;;;;;2.02;1.50;;;;;;;22.87;53.48;99868.08;1646861;87;21340;-81
2023/07/12 00:33:02;;;;;;;2.10;1.72;;;;;;;22.84;53.58;99874.18;1687270;83;21338;-81
2023/07/12 00:36:05;;;;;;;2.15;1.65;;;;;;;22.68;53.64;99871.28;1709272;84;21314;-81
2023/07/12 00:39:09;;;;;;;3.67;1.67;;;;;;;22.86;53.16;99866.38;1701793;83;22235;-81
2023/07/12 00:42:33;;;;;;;2.85;1.90;;;;;;;22.60;53.54;99871.77;1671310;85;21338;-81
2023/07/12 00:45:39;;;;;;;2.62;1.75;;;;;;;22.36;54.18;99869.89;1675137;84;21366;-81
2023/07/12 00:48:45;;;;;;;3.35;1.45;;;;;;;22.24;54.53;99871.16;1676233;85;21945;-82
2023/07/12 00:52:14;;;;;;;2.67;1.60;;;;;;;22.37;54.22;99867.94;1688664;83;21234;-81
2023/07/12 00:56:04;;;;;;;2.65;1.95;;;;;;;22.43;54.07;99866.87;1688270;85;21345;-80
2023/07/12 00:59:15;;;;;;;3.65;1.80;;;;;;;22.51;53.88;99867.78;1669060;85;21351;-80
2023/07/12 01:02:24;;;;;;;1.60;1.50;;;;;;;22.37;54.40;99865.16;1688416;83;21225;-80
2023/07/12 01:05:30;;;;;;;5.27;1.70;;;;;;;22.11;54.82;99867.70;1646148;87;21328;-80
2023/07/12 01:08:41;;;;;;;2.87;2.00;;;;;;;22.09;55.10;99871.25;1635299;87;21508;-81
2023/07/12 01:11:47;;;;;;;3.37;1.95;;;;;;;21.97;55.49;99867.77;1650193;87;21356;-81
2023/07/12 01:14:54;;;;;;;4.05;2.30;;;;;;;21.89;55.93;99871.05;1655761;86;21323;-81
2023/07/12 01:18:00;;;;;;;3.08;1.75;;;;;;;21.85;56.11;99869.33;1658564;86;21347;-81
2023/07/12 01:21:33;;;;;;;4.37;1.92;;;;;;;22.02;55.70;99866.98;1640472;86;21943;-82
2023/07/12 01:24:37;;;;;;;4.70;2.00;;;;;;;22.02;55.77;99862.28;1649253;86;21236;-82
2023/07/12 01:27:44;;;;;;;3.65;1.90;;;;;;;22.07;55.77;99868.46;1651182;86;21867;-82
2023/07/12 01:30:50;;;;;;;6.95;1.90;;;;;;;22.14;55.53;99856.02;1652033;86;21962;-81
2023/07/12 01:33:56;;;;;;;3.70;2.20;;;;;;;22.35;54.82;99866.82;1650641;86;21339;-81
2023/07/12 01:37:04;;;;;;;2.85;2.17;;;;;;;22.28;55.00;99861.16;1650691;85;21903;-80
2023/07/12 01:40:08;;;;;;;6.15;2.02;;;;;;;22.53;54.28;99870.30;1659710;85;21340;-80
2023/07/12 01:43:13;;;;;;;7.70;2.12;;;;;;;22.39;54.33;99865.16;1716119;83;21930;-80
2023/07/12 01:46:19;;;;;;;4.03;2.12;;;;;;;21.93;55.15;99868.88;1710181;84;21875;-80
2023/07/12 01:49:28;;;;;;;3.20;1.92;;;;;;;21.77;55.52;99861.98;1648971;87;21705;-80
2023/07/12 01:52:36;;;;;;;3.75;2.20;;;;;;;21.53;56.17;99866.44;1648032;87;21308;-80
2023/07/12 01:55:43;;;;;;;2.98;1.98;;;;;;;21.48;56.25;99862.20;1651206;86;21371;-80
2023/07/12 01:58:43;;;;;;;2.60;2.40;;;;;;;21.31;56.60;99855.84;1652657;86;22490;-80
2023/07/12 02:01:49;;;;;;;6.62;2.12;;;;;;;21.16;57.10;99852.28;1652747;86;21319;-80
2023/07/12 02:05:30;;;;;;;6.60;2.62;;;;;;;21.12;57.25;99853.34;1651297;86;21337;-80
2023/07/12 02:08:36;;;;;;;4.83;2.50;;;;;;;21.22;57.26;99853.19;1646438;86;21929;-81
2023/07/12 02:11:43;;;;;;;3.87;2.62;;;;;;;21.51;56.63;99856.13;1647613;87;21360;-81
2023/07/12 02:14:49;;;;;;;2.77;2.15;;;;;;;21.40;57.00;99853.74;1647397;87;21910;-81
2023/07/12 02:17:56;;;;;;;4.35;2.30;;;;;;;21.56;56.54;99847.84;1637902;86;21364;-81
2023/07/12 02:21:02;;;;;;;5.40;2.45;;;;;;;21.76;56.07;99847.79;1651245;86;21893;-81
2023/07/12 02:24:07;;;;;;;3.45;2.60;;;;;;;21.93;55.37;99849.94;1649100;86;21315;-81
2023/07/12 02:27:13;;;;;;;2.70;2.25;;;;;;;21.73;56.01;99851.08;1659463;86;21905;-80
2023/07/12 02:30:31;;;;;;;3.40;2.60;;;;;;;21.55;57.14;99848.08;1658700;86;22001;-81
2023/07/12 02:33:37;;;;;;;4.97;2.15;;;;;;;22.06;56.98;99845.31;1659478;86;21331;-81
2023/07/12 02:36:42;;;;;;;5.55;2.45;;;;;;;22.53;56.54;99846.05;1658007;86;21885;-80
2023/07/12 02:39:48;;;;;;;4.42;2.37;;;;;;;23.17;55.00;99842.34;1695274;84;21300;-81
2023/07/12 02:42:54;;;;;;;2.65;2.02;;;;;;;23.50;53.64;99852.27;1646932;87;21894;-81
2023/07/12 02:46:00;;;;;;;3.62;2.20;;;;;;;23.44;52.60;99848.63;1642192;87;21355;-80
2023/07/12 02:49:07;;;;;;;7.55;2.60;;;;;;;23.17;52.61;99850.16;1661872;86;21355;-80
2023/07/12 02:52:14;;;;;;;3.60;2.60;;;;;;;23.07;52.43;99857.08;1668333;86;21867;-80
2023/07/12 02:55:13;;;;;;;4.83;2.52;;;;;;;23.15;52.15;99856.58;1654354;86;21891;-81
2023/07/12 02:58:19;;;;;;;4.47;2.50;;;;;;;23.12;51.95;99852.09;1666980;86;21897;-81
2023/07/12 03:01:25;;;;;;;9.78;2.80;;;;;;;22.93;52.32;99845.55;1657728;86;21387;-81
2023/07/12 03:04:24;;;;;;;5.90;2.80;;;;;;;22.69;53.02;99851.22;1653254;87;21323;-80
2023/07/12 03:07:30;;;;;;;5.05;2.40;;;;;;;22.33;53.92;99852.85;1653245;87;21323;-80
2023/07/12 03:10:37;;;;;;;5.40;2.40;;;;;;;22.69;53.50;99852.05;1657867;86;21924;-80
2023/07/12 03:13:43;;;;;;;3.75;2.98;;;;;;;22.61;53.92;99848.91;1662516;86;21335;-80
2023/07/12 03:16:50;;;;;;;4.87;3.08;;;;;;;22.32;54.83;99847.84;1663420;86;21354;-80
2023/07/12 03:19:56;;;;;;;4.03;2.67;;;;;;;22.19;55.66;99846.31;1663618;86;21371;-81
2023/07/12 03:23:02;;;;;;;4.92;3.08;;;;;;;22.47;55.18;99854.65;1662557;86;21284;-80
2023/07/12 03:26:08;;;;;;;8.08;3.22;;;;;;;22.35;56.05;99860.41;1655307;86;21934;-80
2023/07/12 03:29:14;;;;;;;5.37;3.77;;;;;;;22.24;56.97;99860.01;1653430;87;21330;-80
2023/07/12 03:32:21;;;;;;;6.85;3.92;;;;;;;22.07;57.56;99858.16;1652313;87;21367;-81
2023/07/12 03:35:26;;;;;;;3.77;3.30;;;;;;;22.08;58.02;99859.00;1652207;87;21364;-81
2023/07/12 03:38:32;;;;;;;6.55;3.77;;;;;;;22.52;57.32;99853.30;1653485;87;21383;-80
2023/07/12 03:41:31;;;;;;;7.28;4.20;;;;;;;22.72;56.72;99861.81;1652527;87;21879;-80
2023/07/12 03:44:23;;;;;;;6.70;3.80;;;;;;;22.87;56.58;99865.29;1652867;87;21335;-80
2023/07/12 03:47:30;;;;;;;6.85;3.72;;;;;;;22.70;57.11;99870.45;1652633;87;21375;-81
2023/07/12 03:50:36;;;;;;;9.30;4.53;;;;;;;22.83;56.91;99875.30;1650794;85;21917;-80
2023/07/12 03:53:42;;;;;;;5.25;4.50;;;;;;;22.68;57.40;99879.64;1653436;87;21346;-80
2023/07/12 03:56:41;;;;;;;10.00;4.60;;;;;;;23.12;56.23;99877.19;1653324;87;21315;-80
2023/07/12 03:59:47;;;;;;;7.67;4.70;;;;;;;23.06;56.42;99879.67;1653642;87;21368;-80
2023/07/12 04:02:55;;;;;;;5.17;4.45;;;;;;;23.25;55.85;99878.11;1653028;86;21979;-80
2023/07/12 04:06:03;;;;;;;7.83;5.20;;;;;;;23.15;56.00;99881.69;1653409;87;21339;-81
2023/07/12 04:09:08;;;;;;;5.10;4.47;;;;;;;23.28;55.67;99882.30;1653340;87;21324;-81
2023/07/12 04:12:16;;;;;;;11.55;4.28;;;;;;;23.30;55.71;99883.72;1660976;86;21669;-81
2023/07/12 04:15:21;;;;;;;9.98;5.45;;;;;;;23.40;55.64;99888.52;1661255;86;21335;-80
2023/07/12 04:18:27;;;;;;;7.83;4.67;;;;;;;23.50;55.18;99894.14;1647015;86;21328;-81
2023/07/12 04:21:33;;;;;;;7.08;4.55;;;;;;;23.70;54.37;99902.63;1656099;86;21339;-81
2023/07/12 04:24:40;;;;;;;8.10;4.60;;;;;;;23.62;54.38;99903.14;1656579;86;22626;-81
2023/07/12 04:27:46;;;;;;;9.23;4.65;;;;;;;23.59;54.57;99903.67;1660161;85;21680;-80
2023/07/12 04:30:52;;;;;;;7.70;4.50;;;;;;;23.77;54.17;99907.14;1655098;86;21901;-81
2023/07/12 04:33:59;;;;;;;9.05;4.65;;;;;;;23.94;53.47;99914.17;1656190;86;21335;-80
2023/07/12 04:37:04;;;;;;;11.53;4.60;;;;;;;24.03;52.79;99920.62;1655848;86;21355;-81
2023/07/12 04:40:10;;;;;;;10.10;5.80;;;;;;;23.92;52.98;99921.16;1660082;86;21327;-81
2023/07/12 04:43:17;;;;;;;13.48;5.20;;;;;;;23.97;52.75;99918.38;1605309;89;21323;-82
2023/07/12 04:46:16;;;;;;;9.03;6.58;;;;;;;23.96;52.62;99921.73;1611479;89;21910;-81
2023/07/12 04:49:22;;;;;;;14.68;5.80;;;;;;;24.00;52.45;99929.58;1610876;86;21898;-81
2023/07/12 04:52:28;;;;;;;13.25;5.67;;;;;;;24.01;52.63;99932.65;1627421;88;21993;-81
2023/07/12 04:55:34;;;;;;;12.80;5.60;;;;;;;23.96;52.72;99933.47;1672695;84;21327;-81
2023/07/12 04:58:42;;;;;;;12.70;5.90;;;;;;;24.12;52.46;99934.34;1685670;84;21350;-81
2023/07/12 05:01:49;;;;;;;11.93;6.62;;;;;;;23.92;53.19;99940.71;1651896;86;21331;-81
2023/07/12 05:04:56;;;;;;;13.62;6.72;;;;;;;23.95;53.37;99942.97;1633380;86;21247;-81
2023/07/12 05:08:02;;;;;;;13.13;7.90;;;;;;;24.02;53.66;99950.52;1643671;87;21335;-81
2023/07/12 05:11:08;;;;;;;10.55;6.10;;;;;;;24.30;53.01;99952.56;1625212;86;21328;-81
2023/07/12 05:14:13;;;;;;;10.20;6.35;;;;;;;23.94;53.95;99950.48;1644857;87;22069;-81
2023/07/12 05:17:19;;;;;;;23.22;7.70;;;;;;;23.79;54.85;99960.20;1638709;86;21336;-80
2023/07/12 05:20:24;;;;;;;22.55;7.97;;;;;;;23.96;54.41;99955.25;1637353;87;21887;-81
2023/07/12 05:23:31;;;;;;;20.68;8.25;;;;;;;24.24;53.51;99958.70;1636049;87;21392;-81
2023/07/12 05:26:38;;;;;;;19.85;9.45;;;;;;;24.68;52.09;99946.50;1649678;86;21332;-82
2023/07/12 05:29:44;;;;;;;23.70;10.85;;;;;;;24.69;51.94;99957.13;1637425;87;21336;-82
2023/07/12 05:32:51;;;;;;;30.88;12.15;;;;;;;24.50;52.70;99953.19;1636932;87;21395;-81
2023/07/12 05:35:56;;;;;;;35.50;13.95;;;;;;;24.91;51.72;99951.28;1637638;87;21372;-81
2023/07/12 05:39:04;;;;;;;46.68;14.47;;;;;;;25.02;50.86;99961.34;1636262;87;21339;-81
2023/07/12 05:42:09;;;;;;;34.20;15.68;;;;;;;25.12;50.58;99964.16;1637124;87;21323;-81
2023/07/12 05:45:19;;;;;;;48.48;19.35;;;;;;;25.12;50.22;99955.77;1637292;87;22065;-81
2023/07/12 05:48:25;;;;;;;32.63;14.43;;;;;;;25.35;49.04;99958.53;1637483;87;21380;-82
2023/07/12 05:51:30;;;;;;;38.05;12.93;;;;;;;25.57;47.64;99954.58;1643827;85;21972;-81
2023/07/12 05:54:37;;;;;;;27.48;12.60;;;;;;;25.87;45.04;99962.06;1653167;86;21352;-82
2023/07/12 05:57:43;;;;;;;39.80;18.25;;;;;;;25.90;45.13;99961.50;1651293;86;21363;-82
2023/07/12 06:00:49;;;;;;;53.90;20.00;;;;;;;26.17;45.24;99973.16;1646160;87;21346;-82
2023/07/12 06:03:56;;;;;;;56.73;23.80;;;;;;;26.29;45.28;99972.80;1651095;87;21372;-82
2023/07/12 06:07:02;;;;;;;51.23;23.65;;;;;;;26.39;45.61;99977.52;1652383;87;21958;-82
2023/07/12 06:13:09;;;;;;;27.93;13.70;;;;;;;26.80;44.45;99980.09;1651674;87;21358;-82
2023/07/12 06:15:54;;;;;;;22.02;10.78;;;;;;;27.01;44.03;99983.03;1652570;87;21673;-82
2023/07/12 06:18:46;;;;;;;18.07;8.18;;;;;;;27.17;43.18;99977.57;1641010;87;22030;-82
2023/07/12 06:21:52;;;;;;;23.05;9.88;;;;;;;27.08;41.36;99984.95;1641991;87;21339;-81
2023/07/12 06:24:57;;;;;;;18.77;8.38;;;;;;;27.18;41.22;99987.66;1652262;87;21913;-81
2023/07/12 06:28:03;;;;;;;11.83;5.87;;;;;;;27.06;41.89;99990.00;1651160;86;21322;-81
2023/07/12 06:31:11;;;;;;;5.50;4.47;;;;;;;27.10;41.89;99988.86;1652049;87;21342;-81
2023/07/12 06:34:17;;;;;;;12.47;4.20;;;;;;;27.26;41.49;99991.25;1638869;87;22738;-81
2023/07/12 06:37:23;;;;;;;6.92;3.40;;;;;;;27.33;41.76;99991.47;1636988;87;21363;-80
2023/07/12 06:40:29;;;;;;;6.80;3.20;;;;;;;27.15;41.68;99987.44;1650038;86;21363;-81
2023/07/12 06:43:35;;;;;;;3.98;2.80;;;;;;;27.07;42.12;99991.67;1654331;86;21355;-81
2023/07/12 06:46:42;;;;;;;11.78;2.90;;;;;;;27.02;41.69;99987.50;1653188;86;22774;-81
2023/07/12 06:49:47;;;;;;;6.60;2.50;;;;;;;27.43;40.52;99985.74;1653365;86;21331;-81
2023/07/12 06:52:53;;;;;;;5.05;2.58;;;;;;;27.45;40.58;99983.49;1652441;86;22465;-81
2023/07/12 06:55:59;;;;;;;2.85;2.35;;;;;;;27.50;39.80;99982.87;1648537;86;21351;-81
2023/07/12 06:59:05;;;;;;;4.20;2.40;;;;;;;27.53;39.50;99976.41;1637085;87;22001;-81
2023/07/12 07:02:11;;;;;;;5.15;2.65;;;;;;;27.56;39.02;99982.81;1636631;87;21384;-82
2023/07/12 07:05:17;;;;;;;10.08;2.75;;;;;;;27.51;38.40;99983.70;1638587;87;21351;-82
2023/07/12 07:08:25;;;;;;;2.65;1.87;;;;;;;27.66;37.72;99979.32;1638308;87;21348;-81
2023/07/12 07:11:32;;;;;;;3.22;2.20;;;;;;;27.54;38.04;99977.50;1638276;87;21332;-81
2023/07/12 07:14:38;;;;;;;5.00;2.37;;;;;;;27.76;38.30;99983.48;1637054;87;21248;-81
2023/07/12 07:17:44;;;;;;;4.97;2.37;;;;;;;28.16;37.63;99977.65;1644199;87;21343;-81
2023/07/12 07:20:52;;;;;;;5.70;2.90;;;;;;;28.68;36.58;99975.25;1653363;87;21346;-81
2023/07/12 07:23:57;;;;;;;3.95;1.92;;;;;;;28.88;36.54;99974.66;1653167;87;22612;-80
2023/07/12 07:27:03;;;;;;;12.70;2.58;;;;;;;29.10;34.63;99974.05;1652120;87;21921;-81
2023/07/12 07:30:10;;;;;;;5.35;2.10;;;;;;;29.15;35.13;99969.73;1640578;87;21343;-80
2023/07/12 07:33:16;;;;;;;5.08;2.22;;;;;;;29.27;34.15;99979.38;1650311;85;22334;-80
2023/07/12 07:36:22;;;;;;;3.02;1.98;;;;;;;29.18;34.28;99987.44;1665218;86;21350;-80
2023/07/12 07:39:28;;;;;;;6.97;2.27;;;;;;;28.83;34.24;99986.83;1672355;85;21364;-80
2023/07/12 07:42:33;;;;;;;3.30;1.98;;;;;;;28.83;34.49;99991.63;1672431;85;21327;-80
2023/07/12 07:45:40;;;;;;;3.30;1.75;;;;;;;28.47;34.67;99990.20;1671059;85;21411;-81
2023/07/12 07:48:48;;;;;;;3.10;2.05;;;;;;;28.44;34.43;99982.92;1672394;85;21319;-81
2023/07/12 07:51:54;;;;;;;2.33;1.70;;;;;;;28.71;33.53;99987.88;1672597;85;21347;-80
2023/07/12 07:54:59;;;;;;;7.00;2.00;;;;;;;28.68;33.29;99989.31;1668905;84;21354;-80
2023/07/12 07:58:06;;;;;;;2.80;1.80;;;;;;;29.00;33.44;99977.87;1666445;86;21356;-80
2023/07/12 08:01:12;;;;;;;3.85;2.00;;;;;;;28.93;33.45;99983.84;1669519;85;21363;-80
2023/07/12 08:04:17;;;;;;;3.20;2.00;;;;;;;29.05;33.32;99980.60;1669322;85;21328;-80
2023/07/12 08:07:24;;;;;;;4.95;1.50;;;;;;;29.35;33.22;99983.45;1669429;86;21323;-80
2023/07/12 08:10:32;;;;;;;2.80;1.40;;;;;;;29.78;30.21;99981.83;1669003;86;21344;-80
2023/07/12 08:13:38;;;;;;;2.98;1.30;;;;;;;29.84;29.56;99983.99;1669375;86;21907;-80
2023/07/12 08:16:44;;;;;;;3.15;1.60;;;;;;;29.41;30.84;99985.05;1668478;86;21379;-80
2023/07/12 08:19:52;;;;;;;3.60;1.82;;;;;;;29.51;31.35;99991.91;1670641;86;21383;-81
2023/07/12 08:22:58;;;;;;;3.20;1.42;;;;;;;29.56;31.05;99987.36;1672113;86;21339;-81
2023/07/12 08:26:04;;;;;;;3.20;1.50;;;;;;;29.45;29.15;99982.42;1669585;86;21331;-80
2023/07/12 08:29:10;;;;;;;5.20;1.72;;;;;;;29.33;30.16;99975.06;1667400;86;21351;-80
2023/07/12 08:32:17;;;;;;;3.92;1.87;;;;;;;29.32;30.24;99972.83;1668505;86;21362;-81
2023/07/12 08:35:24;;;;;;;1.82;1.45;;;;;;;29.58;31.22;99963.34;1668705;86;21370;-80
2023/07/12 08:38:32;;;;;;;2.35;1.52;;;;;;;29.58;29.91;99963.92;1668263;86;21375;-81
2023/07/12 08:41:38;;;;;;;1.60;1.50;;;;;;;29.74;29.55;99960.50;1668398;86;21339;-81
2023/07/12 08:44:43;;;;;;;2.83;1.42;;;;;;;29.73;28.53;99961.63;1668991;86;21922;-81
2023/07/12 08:47:48;;;;;;;2.87;1.70;;;;;;;29.77;28.16;99961.27;1667357;86;21355;-80
2023/07/12 08:50:54;;;;;;;2.42;1.35;;;;;;;29.84;27.71;99962.28;1652724;86;21343;-80
2023/07/12 08:54:00;;;;;;;2.75;1.55;;;;;;;30.24;28.21;99954.95;1657121;86;21351;-81
2023/07/12 08:57:30;;;;;;;5.25;2.00;;;;;;;30.16;28.09;99959.95;1685310;84;21350;-80
2023/07/12 09:00:34;;;;;;;4.33;2.10;;;;;;;30.26;28.68;99962.54;1676850;84;21327;-81
2023/07/12 09:03:41;;;;;;;2.60;1.87;;;;;;;30.32;28.97;99957.61;1645217;86;21402;-81
2023/07/12 09:06:47;;;;;;;3.08;2.02;;;;;;;30.05;29.63;99956.45;1645450;87;21395;-80
2023/07/12 09:09:47;;;;;;;2.17;1.72;;;;;;;30.00;28.78;99954.33;1646485;86;21221;-80
2023/07/12 09:12:53;;;;;;;7.33;1.90;;;;;;;30.01;28.83;99955.98;1645590;86;21807;-80
2023/07/12 09:16:00;;;;;;;5.15;1.70;;;;;;;30.03;28.08;99955.12;1645663;87;21965;-80
2023/07/12 09:19:09;;;;;;;2.72;1.70;;;;;;;30.01;28.65;99951.76;1658889;84;21332;-81
2023/07/12 09:22:24;;;;;;;2.72;1.80;;;;;;;30.08;29.15;99955.00;1685824;84;21347;-81
2023/07/12 09:25:33;;;;;;;6.62;1.87;;;;;;;30.12;28.36;99944.77;1701874;84;21363;-80
2023/07/12 09:28:40;;;;;;;5.65;1.60;;;;;;;30.24;27.21;99938.03;1705162;83;21890;-80
2023/07/12 09:31:47;;;;;;;4.80;1.72;;;;;;;30.12;28.13;99933.48;1688096;84;21342;-81
2023/07/12 09:34:54;;;;;;;1.72;1.15;;;;;;;30.19;28.66;99926.86;1705490;83;21319;-81
2023/07/12 09:38:06;;;;;;;3.75;1.60;;;;;;;30.27;28.61;99919.07;1704258;83;21351;-81
2023/07/12 09:41:20;;;;;;;5.12;1.50;;;;;;;30.07;28.52;99925.72;1706026;83;21307;-81
2023/07/12 09:44:26;;;;;;;1.50;1.20;;;;;;;30.13;28.77;99929.55;1705662;83;21343;-80
2023/07/12 09:48:01;;;;;;;4.65;1.40;;;;;;;30.24;28.47;99933.80;1704334;83;21327;-80
2023/07/12 09:51:13;;;;;;;4.08;1.47;;;;;;;30.29;28.85;99924.38;1682030;85;21343;-81
2023/07/12 09:54:54;;;;;;;2.35;1.30;;;;;;;30.27;29.32;99928.11;1650377;86;21327;-81
2023/07/12 09:58:41;;;;;;;1.65;1.12;;;;;;;30.29;28.74;99936.50;1653574;86;22668;-81
2023/07/12 10:02:08;;;;;;;2.30;1.20;;;;;;;30.43;27.70;99935.05;1656392;85;21345;-81
2023/07/12 10:05:26;;;;;;;3.65;1.30;;;;;;;30.79;27.32;99940.72;1657084;85;21343;-80
2023/07/12 10:08:34;;;;;;;3.80;1.22;;;;;;;30.82;28.00;99943.50;1644540;86;21371;-80
2023/07/12 10:12:04;;;;;;;4.70;1.30;;;;;;;30.70;27.58;99948.83;1641155;86;21315;-80
2023/07/12 10:15:10;;;;;;;2.10;1.15;;;;;;;30.63;27.57;99932.35;1655603;86;21331;-79
2023/07/12 10:18:26;;;;;;;2.08;1.10;;;;;;;30.90;27.52;99927.17;1655484;86;21319;-80
2023/07/12 10:21:34;;;;;;;4.37;1.80;;;;;;;31.03;26.67;99921.21;1671415;85;21876;-80
2023/07/12 10:24:49;;;;;;;15.38;1.95;;;;;;;31.26;26.76;99918.61;1683072;85;21330;-80
2023/07/12 10:28:03;;;;;;;2.60;1.40;;;;;;;31.14;26.35;99925.42;1684157;85;21348;-80
2023/07/12 10:31:07;;;;;;;3.02;1.55;;;;;;;31.01;26.10;99927.77;1684154;84;21875;-80
2023/07/12 10:34:02;;;;;;;1.98;1.47;;;;;;;30.93;27.02;99927.13;1653399;85;21299;-80
2023/07/12 10:36:50;;;;;;;1.65;1.20;;;;;;;30.88;26.35;99923.02;1690592;85;21343;-80
2023/07/12 10:39:43;;;;;;;3.58;1.20;;;;;;;30.94;26.48;99927.38;1682939;85;21634;-80
2023/07/12 10:42:40;;;;;;;1.98;1.60;;;;;;;31.14;27.45;99926.00;1661320;86;21365;-81
2023/07/12 10:45:35;;;;;;;2.55;1.57;;;;;;;31.27;26.88;99917.48;1697607;84;21310;-81
2023/07/12 10:48:24;;;;;;;;;;;;;;;31.20;26.78;99933.20;1704810;83;21323;-81
2023/07/12 10:51:47;;;;;;;3.02;1.30;;;;;;;31.05;27.35;99933.00;1679071;84;20291;-79
2023/07/12 10:55:13;;;;;;;1.75;1.20;;;;;;;30.90;27.61;99935.64;1670605;85;21335;-81
2023/07/12 10:58:50;;;;;;;3.30;1.40;;;;;;;30.75;28.07;99937.45;1646698;86;21331;-81
2023/07/12 11:02:01;;;;;;;4.47;1.22;;;;;;;30.82;28.01;99929.38;1604701;87;22369;-80
2023/07/12 11:05:08;;;;;;;1.95;1.42;;;;;;;30.98;28.06;99937.70;1625398;87;21331;-80
2023/07/12 11:08:32;;;;;;;1.72;1.50;;;;;;;31.09;27.52;99941.67;1592104;88;21347;-81
2023/07/12 11:11:49;;;;;;;3.83;1.60;;;;;;;31.02;28.08;99942.97;1637357;86;21316;-80
2023/07/12 11:14:58;;;;;;;5.45;1.52;;;;;;;30.83;28.34;99947.15;1655354;86;21232;-80
2023/07/12 11:18:17;;;;;;;3.83;1.60;;;;;;;30.60;28.46;99939.20;1657283;86;21391;-80
2023/07/12 11:21:54;;;;;;;4.40;1.30;;;;;;;30.63;27.98;99928.12;1656780;86;21350;-80
2023/07/12 11:25:29;;;;;;;7.70;1.70;;;;;;;30.69;28.32;99928.24;1648884;86;21311;-80
2023/07/12 11:28:48;;;;;;;3.77;1.42;;;;;;;30.61;27.99;99930.41;1645681;87;21666;-80
2023/07/12 11:31:55;;;;;;;;;;;;;;;30.68;27.58;99928.57;1617608;87;21854;-80
2023/07/12 11:35:17;;;;;;;3.30;1.50;;;;;;;30.74;27.36;99926.73;1612911;88;20954;-81
2023/07/12 11:38:33;;;;;;;1.65;1.50;;;;;;;30.74;27.87;99919.68;1587072;89;21263;-81
2023/07/12 11:41:41;;;;;;;6.85;1.40;;;;;;;30.92;27.61;99910.77;1620161;87;21631;-80
2023/07/12 11:44:46;;;;;;;8.48;1.20;;;;;;;30.90;27.44;99909.41;1626920;88;21355;-81
2023/07/12 11:47:53;;;;;;;2.83;1.00;;;;;;;31.09;25.45;99922.73;1633953;87;21322;-81
2023/07/12 11:51:01;;;;;;;6.95;1.47;;;;;;;31.20;25.96;99907.20;1661294;85;21343;-81
2023/07/12 11:54:11;;;;;;;4.35;1.32;;;;;;;31.59;26.51;99913.23;1674065;85;21327;-80
2023/07/12 11:57:19;;;;;;;4.33;1.40;;;;;;;31.48;26.33;99914.11;1663603;85;21363;-80
2023/07/12 12:00:28;;;;;;;2.37;1.45;;;;;;;31.27;26.79;99904.77;1650496;85;21376;-80
2023/07/12 12:03:34;;;;;;;2.00;1.30;;;;;;;31.02;26.81;99906.26;1635207;87;22018;-80
2023/07/12 12:06:40;;;;;;;7.53;1.50;;;;;;;30.92;26.31;99905.12;1635860;87;21267;-80
2023/07/12 12:09:46;;;;;;;4.53;1.40;;;;;;;30.64;26.64;99898.73;1636130;87;21351;-80
2023/07/12 12:12:47;;;;;;;8.85;1.32;;;;;;;30.56;27.00;99907.95;1619853;84;21169;-80
2023/07/12 12:15:40;;;;;;;5.97;1.35;;;;;;;30.57;27.41;99906.80;1601672;87;22425;-80
2023/07/12 12:18:46;;;;;;;5.78;1.20;;;;;;;30.54;26.88;99907.45;1654699;85;21359;-80
2023/07/12 12:21:58;;;;;;;8.58;1.30;;;;;;;30.72;27.25;99902.79;1619103;87;21383;-80
2023/07/12 12:25:06;;;;;;;2.25;1.42;;;;;;;30.90;26.71;99917.87;1648581;86;21649;-80
2023/07/12 12:28:13;;;;;;;2.15;1.40;;;;;;;30.67;26.45;99914.17;1620944;85;21307;-80
2023/07/12 12:31:29;;;;;;;4.90;1.60;;;;;;;30.64;26.79;99918.48;1674409;85;21403;-80
2023/07/12 12:34:49;;;;;;;1.82;1.30;;;;;;;30.71;27.60;99913.25;1675357;85;21977;-81
2023/07/12 12:38:08;;;;;;;3.27;1.85;;;;;;;30.45;27.94;99919.23;1663002;85;21339;-80
2023/07/12 12:41:24;;;;;;;8.68;1.80;;;;;;;30.60;27.69;99921.69;1674251;85;21947;-80
2023/07/12 12:44:30;;;;;;;3.35;1.40;;;;;;;30.80;27.85;99918.97;1675193;85;22570;-81
2023/07/12 12:47:37;;;;;;;9.63;1.52;;;;;;;30.80;28.23;99926.02;1630616;87;21346;-80
2023/07/12 12:50:45;;;;;;;1.47;1.30;;;;;;;30.79;28.46;99920.13;1644700;87;21335;-80
2023/07/12 12:53:53;;;;;;;2.35;1.30;;;;;;;31.07;27.88;99925.64;1643157;87;21310;-80
2023/07/12 12:56:59;;;;;;;15.08;1.50;;;;;;;31.24;27.07;99928.00;1643134;87;21322;-80
2023/07/12 13:00:06;;;;;;;4.30;1.55;;;;;;;31.05;27.56;99934.42;1642947;86;21390;-80
2023/07/12 13:03:14;;;;;;;3.30;1.30;;;;;;;30.90;27.43;99932.82;1643057;87;21379;-80
2023/07/12 13:06:27;;;;;;;2.40;1.32;;;;;;;30.84;27.24;99934.12;1644254;87;21322;-79
2023/07/12 13:09:34;;;;;;;3.87;1.60;;;;;;;30.68;27.98;99929.41;1643632;87;21323;-80
2023/07/12 13:12:42;;;;;;;6.75;1.52;;;;;;;30.75;27.64;99931.22;1644241;87;21315;-80
2023/07/12 13:15:50;;;;;;;8.73;1.65;;;;;;;30.71;27.75;99937.83;1644795;86;21921;-81
2023/07/12 13:18:58;;;;;;;5.12;1.60;;;;;;;30.66;28.09;99928.88;1644257;87;21858;-80
2023/07/12 13:22:05;;;;;;;7.10;1.40;;;;;;;30.59;28.57;99940.36;1645305;87;21337;-80
2023/07/12 13:25:10;;;;;;;4.45;1.75;;;;;;;30.46;28.01;99934.43;1645381;87;21326;-80
2023/07/12 13:28:21;;;;;;;2.45;1.50;;;;;;;30.41;28.37;99939.36;1645168;87;21314;-81
2023/07/12 13:31:28;;;;;;;7.87;1.77;;;;;;;30.50;28.77;99943.10;1644833;87;21362;-81
2023/07/12 13:34:34;;;;;;;6.10;1.80;;;;;;;30.74;28.22;99939.44;1645144;87;21330;-80
2023/07/12 13:37:44;;;;;;;4.55;1.42;;;;;;;30.51;28.63;99948.42;1645309;87;21878;-80
2023/07/12 13:40:51;;;;;;;6.60;1.90;;;;;;;30.65;28.10;99944.72;1645823;85;21327;-80
2023/07/12 13:43:58;;;;;;;5.90;1.95;;;;;;;30.60;28.16;99940.61;1648221;87;21323;-80
2023/07/12 13:47:04;;;;;;;2.67;1.30;;;;;;;30.74;28.00;99942.84;1645967;87;22038;-80
2023/07/12 13:50:10;;;;;;;3.05;1.60;;;;;;;30.95;27.71;99943.16;1642893;87;21359;-79
2023/07/12 13:53:19;;;;;;;10.18;1.35;;;;;;;30.90;27.60;99930.00;1643711;87;21356;-80
2023/07/12 13:56:24;;;;;;;2.45;1.20;;;;;;;30.69;28.44;99932.48;1643854;87;21352;-80
2023/07/12 13:59:32;;;;;;;3.92;1.50;;;;;;;30.47;28.11;99921.16;1652262;86;21863;-80
2023/07/12 14:02:41;;;;;;;8.30;2.10;;;;;;;30.75;27.72;99925.58;1654641;86;21339;-80
2023/07/12 14:05:49;;;;;;;7.17;1.70;;;;;;;30.85;27.22;99925.06;1617538;88;21346;-80
2023/07/12 14:08:56;;;;;;;3.42;1.30;;;;;;;30.62;27.80;99933.48;1648218;86;21348;-82
2023/07/12 14:12:03;;;;;;;7.75;1.70;;;;;;;30.69;27.68;99922.59;1622964;85;21347;-81
2023/07/12 14:15:09;;;;;;;11.25;1.70;;;;;;;30.45;28.02;99921.48;1665715;86;21319;-81
2023/07/12 14:18:17;;;;;;;9.98;1.60;;;;;;;30.37;28.21;99927.04;1665791;86;21344;-81
2023/07/12 14:21:25;;;;;;;4.15;1.52;;;;;;;30.57;28.17;99923.73;1664421;86;21375;-81
2023/07/12 14:24:31;;;;;;;4.67;1.12;;;;;;;30.63;28.03;99922.47;1665970;86;21367;-80
2023/07/12 14:27:42;;;;;;;2.08;1.32;;;;;;;30.90;27.44;99929.17;1665705;85;21326;-81
2023/07/12 14:30:48;;;;;;;5.75;1.17;;;;;;;30.97;27.91;99919.10;1664968;86;21339;-81
2023/07/12 14:33:56;;;;;;;3.02;1.62;;;;;;;30.97;27.30;99923.34;1671316;86;21351;-80
2023/07/12 14:37:07;;;;;;;4.67;1.40;;;;;;;30.42;28.08;99917.05;1673051;86;21323;-81
2023/07/12 14:40:13;;;;;;;3.60;1.45;;;;;;;30.27;28.57;99914.84;1668218;86;21379;-82
2023/07/12 14:43:21;;;;;;;9.55;1.62;;;;;;;30.34;28.75;99912.15;1671378;85;21327;-82
2023/07/12 14:46:28;;;;;;;2.30;1.50;;;;;;;30.30;28.54;99907.70;1675939;85;21887;-81